createdAt,value
2022-08-12T00:00:35.484Z,24.80
2022-08-12T00:03:21.501Z,24.90
2022-08-12T00:06:08.141Z,24.90
2022-08-12T00:08:55.539Z,24.80
2022-08-12T00:11:42.635Z,24.80
2022-08-12T00:14:30.143Z,24.80
2022-08-12T00:17:15.543Z,24.90
2022-08-12T00:20:00.945Z,24.90
2022-08-12T00:22:46.731Z,25.00
2022-08-12T00:26:21.589Z,25.00
2022-08-12T00:29:11.285Z,25.10
2022-08-12T00:31:57.079Z,25.10
2022-08-12T00:34:42.263Z,25.20
2022-08-12T00:37:27.752Z,25.20
2022-08-12T00:40:14.547Z,25.20
2022-08-12T00:42:42.593Z,25.20
2022-08-12T00:45:10.339Z,25.20
2022-08-12T00:47:38.395Z,25.20
2022-08-12T00:52:39.105Z,25.30
2022-08-12T00:57:37.650Z,25.30
2022-08-12T01:00:10.945Z,25.30
2022-08-12T01:02:40.502Z,25.30
2022-08-12T01:05:32.477Z,25.30
2022-08-12T01:08:17.895Z,25.30
2022-08-12T01:13:41.471Z,25.30
2022-08-12T01:16:09.236Z,25.40
2022-08-12T01:24:30.631Z,25.40
2022-08-12T01:26:59.873Z,25.40
2022-08-12T01:29:33.147Z,25.40
2022-08-12T01:32:05.743Z,25.40
2022-08-12T01:34:38.552Z,25.40
2022-08-12T01:37:09.372Z,25.40
2022-08-12T01:40:34.372Z,25.40
2022-08-12T01:42:43.206Z,25.40
2022-08-12T01:45:12.220Z,25.40
2022-08-12T01:48:05.157Z,25.40
2022-08-12T01:50:54.398Z,25.30
2022-08-12T01:53:50.385Z,25.30
2022-08-12T01:56:19.054Z,25.30
2022-08-12T01:59:05.075Z,25.30
2022-08-12T02:01:39.283Z,25.30
2022-08-12T02:05:09.966Z,25.40
2022-08-12T02:07:58.228Z,25.30
2022-08-12T02:11:16.488Z,25.30
2022-08-12T02:14:10.893Z,25.30
2022-08-12T02:16:50.962Z,25.20
2022-08-12T02:19:35.394Z,25.30
2022-08-12T02:22:22.246Z,25.20
2022-08-12T02:24:50.748Z,25.30
2022-08-12T02:27:20.321Z,25.20
2022-08-12T02:29:47.493Z,25.20
2022-08-12T02:39:51.611Z,25.20
2022-08-12T02:47:59.688Z,25.20
2022-08-12T02:50:21.051Z,25.20
2022-08-12T02:52:51.168Z,25.20
2022-08-12T02:55:34.103Z,25.20
2022-08-12T02:58:06.824Z,25.20
2022-08-12T03:00:39.706Z,25.20
2022-08-12T03:03:09.739Z,25.20
2022-08-12T03:05:44.979Z,25.10
2022-08-12T03:08:23.426Z,25.20
2022-08-12T03:11:04.686Z,25.10
2022-08-12T03:13:36.435Z,25.10
2022-08-12T03:16:03.264Z,25.10
2022-08-12T03:18:32.145Z,25.00
2022-08-12T03:21:01.578Z,25.00
2022-08-12T03:23:31.268Z,25.00
2022-08-12T03:26:02.890Z,25.00
2022-08-12T03:28:50.703Z,25.00
2022-08-12T03:31:29.626Z,25.00
2022-08-12T03:34:12.480Z,25.00
2022-08-12T03:36:41.620Z,25.00
2022-08-12T03:39:16.515Z,25.00
2022-08-12T03:42:01.248Z,24.90
2022-08-12T03:45:10.830Z,24.90
2022-08-12T03:48:18.736Z,24.90
2022-08-12T03:51:06.399Z,24.90
2022-08-12T04:04:36.347Z,25.00
2022-08-12T04:07:08.865Z,25.00
2022-08-12T04:09:39.011Z,24.90
2022-08-12T04:12:29.874Z,24.90
2022-08-12T04:15:00.750Z,24.90
2022-08-12T04:17:28.002Z,24.90
2022-08-12T04:19:56.471Z,24.90
2022-08-12T04:22:29.329Z,24.90
2022-08-12T04:25:01.032Z,24.80
2022-08-12T04:27:30.143Z,24.80
2022-08-12T04:30:31.838Z,24.90
2022-08-12T04:32:45.777Z,24.80
2022-08-12T04:35:12.959Z,24.70
2022-08-12T04:37:58.240Z,24.60
2022-08-12T04:40:31.358Z,24.60
2022-08-12T04:43:00.874Z,24.50
2022-08-12T04:45:27.547Z,24.50
2022-08-12T04:47:54.128Z,24.50
2022-08-12T04:50:34.663Z,24.50
2022-08-12T04:53:08.321Z,24.40
2022-08-12T04:55:37.182Z,24.30
2022-08-12T04:58:03.845Z,24.30
2022-08-12T05:00:30.562Z,24.30
2022-08-12T05:02:57.255Z,24.30
2022-08-12T05:05:24.715Z,24.30
2022-08-12T05:07:54.335Z,24.20
2022-08-12T05:10:33.429Z,24.20
2022-08-12T05:13:07.074Z,24.30
2022-08-12T05:15:34.725Z,24.20
2022-08-12T05:18:20.427Z,24.20
2022-08-12T05:20:48.356Z,24.30
2022-08-12T05:23:16.003Z,24.30
2022-08-12T05:25:44.037Z,24.30
2022-08-12T05:28:12.957Z,24.30
2022-08-12T05:30:42.366Z,24.50
2022-08-12T05:33:10.168Z,24.50
2022-08-12T05:35:42.895Z,24.50
2022-08-12T05:38:30.189Z,24.60
2022-08-12T05:40:56.778Z,24.60
2022-08-12T05:43:24.704Z,24.60
2022-08-12T05:48:23.287Z,24.60
2022-08-12T05:50:49.978Z,24.60
2022-08-12T05:53:16.564Z,24.60
2022-08-12T05:55:43.182Z,24.60
2022-08-12T05:58:09.772Z,24.70
2022-08-12T06:00:37.918Z,24.70
2022-08-12T06:03:05.958Z,24.70
2022-08-12T06:05:54.648Z,24.80
2022-08-12T06:08:21.926Z,24.80
2022-08-12T06:10:50.073Z,24.80
2022-08-12T06:13:28.501Z,24.90
2022-08-12T06:16:07.141Z,24.90
2022-08-12T06:18:34.160Z,24.90
2022-08-12T06:21:02.009Z,24.90
2022-08-12T06:23:29.724Z,25.00
2022-08-12T06:25:57.506Z,25.00
2022-08-12T06:28:24.663Z,25.00
2022-08-12T06:31:22.337Z,25.00
2022-08-12T06:33:57.631Z,25.00
2022-08-12T06:36:29.389Z,25.00
2022-08-12T06:38:56.930Z,25.00
2022-08-12T06:42:04.869Z,25.00
2022-08-12T06:44:28.693Z,25.00
2022-08-12T06:46:56.885Z,25.10
2022-08-12T06:49:25.387Z,25.10
2022-08-12T06:51:56.779Z,25.10
2022-08-12T06:54:31.695Z,25.10
2022-08-12T06:57:05.275Z,25.10
2022-08-12T06:59:46.467Z,25.10
2022-08-12T07:02:13.075Z,25.10
2022-08-12T07:04:39.914Z,25.10
2022-08-12T07:07:08.907Z,25.20
2022-08-12T07:10:01.225Z,25.20
2022-08-12T07:12:22.804Z,25.20
2022-08-12T07:14:53.708Z,25.20
2022-08-12T07:17:20.288Z,25.20
2022-08-12T07:19:48.860Z,25.30
2022-08-12T07:22:16.008Z,25.30
2022-08-12T07:24:42.673Z,25.20
2022-08-12T07:27:09.584Z,25.20
2022-08-12T07:30:03.906Z,25.20
2022-08-12T07:32:24.504Z,25.30
2022-08-12T07:34:56.380Z,25.20
2022-08-12T07:37:23.485Z,25.30
2022-08-12T07:39:59.486Z,25.30
2022-08-12T07:42:28.662Z,25.30
2022-08-12T07:50:03.594Z,25.30
2022-08-12T07:52:33.565Z,25.30
2022-08-12T07:55:00.467Z,25.40
2022-08-12T07:57:27.653Z,25.30
2022-08-12T08:10:07.223Z,25.40
2022-08-12T08:15:51.375Z,25.40
2022-08-12T08:18:25.916Z,25.40
2022-08-12T08:20:54.484Z,25.40
2022-08-12T08:23:21.095Z,25.40
2022-08-12T08:25:49.925Z,25.40
2022-08-12T08:28:17.207Z,25.40
2022-08-12T08:33:23.569Z,25.40
2022-08-12T08:36:06.651Z,25.50
2022-08-12T08:38:44.594Z,25.50
2022-08-12T08:42:19.266Z,25.50
2022-08-12T08:44:30.979Z,25.50
2022-08-12T08:46:57.647Z,25.50
2022-08-12T08:49:24.993Z,25.50
2022-08-12T08:51:51.630Z,25.50
2022-08-12T08:54:18.237Z,25.50
2022-08-12T08:56:46.207Z,25.50
2022-08-12T08:59:13.750Z,25.50
2022-08-12T09:01:41.286Z,25.50
2022-08-12T09:05:08.301Z,25.50
2022-08-12T09:07:00.086Z,25.50
2022-08-12T09:09:34.037Z,25.50
2022-08-12T09:12:32.761Z,25.50
2022-08-12T09:15:16.582Z,25.60
2022-08-12T09:17:51.752Z,25.50
2022-08-12T09:20:18.858Z,25.50
2022-08-12T09:22:57.539Z,25.50
2022-08-12T09:25:33.517Z,25.60
2022-08-12T09:28:04.816Z,25.60
2022-08-12T09:30:42.083Z,25.60
2022-08-12T09:33:18.367Z,25.60
2022-08-12T09:36:04.409Z,25.60
2022-08-12T09:38:33.590Z,25.60
2022-08-12T09:42:09.848Z,25.60
2022-08-12T09:44:39.259Z,25.60
2022-08-12T09:46:56.110Z,25.60
2022-08-12T09:49:24.511Z,25.60
2022-08-12T09:51:54.162Z,25.60
2022-08-12T09:54:34.086Z,25.60
2022-08-12T09:58:46.718Z,25.60
2022-08-12T10:00:13.845Z,25.70
2022-08-12T10:03:03.363Z,25.60
2022-08-12T10:06:26.590Z,25.60
2022-08-12T10:08:27.292Z,25.70
2022-08-12T10:11:20.057Z,25.70
2022-08-12T10:13:48.635Z,25.70
2022-08-12T10:16:23.161Z,25.70
2022-08-12T10:18:53.871Z,25.70
2022-08-12T10:21:35.508Z,25.70
2022-08-12T10:24:05.685Z,25.70
2022-08-12T10:26:51.929Z,25.70
2022-08-12T10:30:37.716Z,25.70
2022-08-12T10:32:45.205Z,25.70
2022-08-12T10:35:14.285Z,25.70
2022-08-12T10:38:38.852Z,25.70
2022-08-12T10:40:33.114Z,25.70
2022-08-12T10:43:19.929Z,25.70
2022-08-12T10:45:51.783Z,25.70
2022-08-12T10:48:33.414Z,25.70
2022-08-12T10:52:03.018Z,25.70
2022-08-12T10:53:52.618Z,25.70
2022-08-12T10:56:19.819Z,25.70
2022-08-12T10:58:48.991Z,25.70
2022-08-12T11:01:49.361Z,25.70
2022-08-12T11:04:23.464Z,25.70
2022-08-12T11:07:06.417Z,25.70
2022-08-12T11:09:59.559Z,25.80
2022-08-12T11:12:55.449Z,25.80
2022-08-12T11:15:32.791Z,25.70
2022-08-12T11:18:11.871Z,25.70
2022-08-12T11:20:44.821Z,25.80
2022-08-12T11:23:36.487Z,25.80
2022-08-12T11:26:05.119Z,25.80
2022-08-12T11:28:33.882Z,25.80
2022-08-12T11:31:02.841Z,25.80
2022-08-12T11:34:06.138Z,25.80
2022-08-12T11:36:17.266Z,25.80
2022-08-12T11:38:50.396Z,25.80
2022-08-12T11:41:31.894Z,25.80
2022-08-12T11:44:36.200Z,25.80
2022-08-12T11:46:52.874Z,25.80
2022-08-12T11:49:32.299Z,25.80
2022-08-12T11:52:03.536Z,25.90
2022-08-12T11:54:31.432Z,25.80
2022-08-12T11:57:02.363Z,25.80
2022-08-12T12:02:20.622Z,25.90
2022-08-12T12:04:52.342Z,25.80
2022-08-12T12:07:22.566Z,25.80
2022-08-12T12:09:52.778Z,25.80
2022-08-12T12:12:23.174Z,25.90
2022-08-12T12:14:54.630Z,25.90
2022-08-12T12:17:23.630Z,25.90
2022-08-12T12:19:50.551Z,25.90
2022-08-12T12:22:23.636Z,25.90
2022-08-12T12:24:54.176Z,25.90
2022-08-12T12:28:03.750Z,25.90
2022-08-12T12:30:18.103Z,25.90
2022-08-12T12:32:55.279Z,25.90
2022-08-12T12:36:19.903Z,25.90
2022-08-12T12:38:13.477Z,25.90
2022-08-12T12:40:43.792Z,26.00
2022-08-12T12:43:12.293Z,26.00
2022-08-12T12:45:44.146Z,26.00
2022-08-12T12:48:15.282Z,25.90
2022-08-12T12:51:09.447Z,26.00
2022-08-12T12:54:08.795Z,26.00
2022-08-12T12:56:34.271Z,26.00
2022-08-12T12:59:03.526Z,26.00
2022-08-12T13:01:31.117Z,26.00
2022-08-12T13:04:02.603Z,26.00
2022-08-12T13:06:30.874Z,26.00
2022-08-12T13:09:03.317Z,26.00
2022-08-12T13:11:41.582Z,26.00
2022-08-12T13:14:29.516Z,26.00
2022-08-12T13:17:02.374Z,26.00
2022-08-12T13:19:38.842Z,26.00
2022-08-12T13:22:20.301Z,26.00
2022-08-12T13:24:54.785Z,26.00
2022-08-12T13:27:28.345Z,26.00
2022-08-12T13:30:04.375Z,26.10
2022-08-12T13:32:33.951Z,26.10
2022-08-12T13:35:04.642Z,26.10
2022-08-12T13:37:55.358Z,26.10
2022-08-12T13:40:27.328Z,26.10
2022-08-12T13:42:58.000Z,26.10
2022-08-12T13:45:29.722Z,26.10
2022-08-12T13:48:03.965Z,26.10
2022-08-12T13:50:33.395Z,26.10
2022-08-12T13:53:22.992Z,26.20
2022-08-12T13:55:59.319Z,26.10
2022-08-12T13:58:28.636Z,26.10
2022-08-12T14:00:58.001Z,26.10
2022-08-12T14:03:28.025Z,26.10
2022-08-12T14:05:59.181Z,26.10
2022-08-12T14:08:34.618Z,26.10
2022-08-12T14:11:02.146Z,26.20
2022-08-12T14:14:03.613Z,26.10
2022-08-12T14:16:46.999Z,26.10
2022-08-12T14:19:18.407Z,26.20
2022-08-12T14:22:00.655Z,26.10
2022-08-12T14:24:35.159Z,26.20
2022-08-12T14:27:03.384Z,26.20
2022-08-12T14:29:55.699Z,26.20
2022-08-12T14:32:18.154Z,26.20
2022-08-12T14:34:47.097Z,26.20
2022-08-12T14:37:55.628Z,26.20
2022-08-12T14:40:00.595Z,26.20
2022-08-12T14:42:28.271Z,26.20
2022-08-12T14:44:59.802Z,26.20
2022-08-12T14:47:29.256Z,26.20
2022-08-12T14:50:40.856Z,26.20
2022-08-12T14:55:18.159Z,26.20
2022-08-12T14:58:25.282Z,26.20
2022-08-12T15:01:11.366Z,26.20
2022-08-12T15:03:53.862Z,26.20
2022-08-12T15:06:43.675Z,26.20
2022-08-12T15:09:14.015Z,26.30
2022-08-12T15:11:54.508Z,26.30
2022-08-12T15:14:25.292Z,26.30
2022-08-12T15:16:52.711Z,26.30
2022-08-12T15:20:32.009Z,26.30
2022-08-12T15:22:37.519Z,26.30
2022-08-12T15:24:53.759Z,26.30
2022-08-12T15:27:22.183Z,26.30
2022-08-12T15:29:52.250Z,26.30
2022-08-12T15:32:31.671Z,26.30
2022-08-12T15:35:00.275Z,26.30
2022-08-12T15:38:08.346Z,26.40
2022-08-12T15:40:14.160Z,26.30
2022-08-12T15:42:40.786Z,26.30
2022-08-12T15:45:23.591Z,26.30
2022-08-12T15:48:04.450Z,26.30
2022-08-12T15:50:43.858Z,26.30
2022-08-12T15:53:37.406Z,26.30
2022-08-12T15:56:08.980Z,26.30
2022-08-12T15:58:41.346Z,26.30
2022-08-12T16:01:15.036Z,26.30
2022-08-12T16:03:46.000Z,26.40
2022-08-12T16:06:50.674Z,26.40
2022-08-12T16:09:21.684Z,26.40
2022-08-12T16:12:07.788Z,26.40
2022-08-12T16:14:38.738Z,26.40
2022-08-12T16:17:05.710Z,26.40
2022-08-12T16:20:03.519Z,26.40
2022-08-12T16:22:26.515Z,26.40
2022-08-12T16:24:54.051Z,26.40
2022-08-12T16:27:23.687Z,26.40
2022-08-12T16:29:57.073Z,26.40
2022-08-12T16:32:31.101Z,26.50
2022-08-12T16:34:58.997Z,26.50
2022-08-12T16:38:04.654Z,26.50
2022-08-12T16:40:13.970Z,26.50
2022-08-12T16:42:54.556Z,26.50
2022-08-12T16:45:32.137Z,26.50
2022-08-12T16:48:33.944Z,26.50
2022-08-12T16:51:09.221Z,26.50
2022-08-12T16:53:44.276Z,26.50
2022-08-12T16:56:15.095Z,26.50
2022-08-12T16:58:43.531Z,26.50
2022-08-12T17:01:14.515Z,26.50
2022-08-12T17:03:47.149Z,26.50
2022-08-12T17:06:22.232Z,26.50
2022-08-12T17:09:08.482Z,26.50
2022-08-12T17:11:43.563Z,26.50
2022-08-12T17:14:10.228Z,26.50
2022-08-12T17:16:40.336Z,26.50
2022-08-12T17:19:08.962Z,26.50
2022-08-12T17:21:40.916Z,26.50
2022-08-12T17:24:16.383Z,26.50
2022-08-12T17:26:45.497Z,26.50
2022-08-12T17:29:32.305Z,26.50
2022-08-12T17:32:08.848Z,26.50
2022-08-12T17:34:54.972Z,26.60
2022-08-12T17:37:21.798Z,26.60
2022-08-12T17:40:06.678Z,26.60
2022-08-12T17:42:37.792Z,26.50
2022-08-12T17:45:18.206Z,26.60
2022-08-12T17:48:02.122Z,26.60
2022-08-12T17:50:34.070Z,26.50
2022-08-12T17:53:02.939Z,26.60
2022-08-12T17:55:40.949Z,26.60
2022-08-12T17:58:13.818Z,26.60
2022-08-12T18:00:45.071Z,26.60
2022-08-12T18:03:58.060Z,26.60
2022-08-12T18:06:08.391Z,26.60
2022-08-12T18:08:39.933Z,26.60
2022-08-12T18:12:05.661Z,26.60
2022-08-12T18:14:15.776Z,26.60
2022-08-12T18:16:55.251Z,26.60
2022-08-12T18:19:22.073Z,26.60
2022-08-12T18:22:01.226Z,26.60
2022-08-12T18:24:30.271Z,26.60
2022-08-12T18:26:57.541Z,26.60
2022-08-12T18:29:27.151Z,26.60
2022-08-12T18:32:34.711Z,26.70
2022-08-12T18:34:57.727Z,26.70
2022-08-12T18:37:41.545Z,26.70
2022-08-12T18:40:27.945Z,26.60
2022-08-12T18:42:55.053Z,26.70
2022-08-12T18:45:31.643Z,26.70
2022-08-12T18:48:16.545Z,26.70
2022-08-12T18:50:50.955Z,26.70
2022-08-12T18:54:06.505Z,26.70
2022-08-12T18:56:06.580Z,26.60
2022-08-12T18:58:59.441Z,26.70
2022-08-12T19:02:21.104Z,26.70
2022-08-12T19:04:15.604Z,26.70
2022-08-12T19:06:46.655Z,26.70
2022-08-12T19:09:15.264Z,26.70
2022-08-12T19:12:01.163Z,26.70
2022-08-12T19:14:28.254Z,26.70
2022-08-12T19:17:04.959Z,26.70
2022-08-12T19:19:42.692Z,26.70
2022-08-12T19:22:10.151Z,26.70
2022-08-12T19:24:55.257Z,26.70
2022-08-12T19:27:23.352Z,26.70
2022-08-12T19:30:06.411Z,26.70
2022-08-12T19:32:36.019Z,26.70
2022-08-12T19:36:06.632Z,26.70
2022-08-12T19:38:06.494Z,26.70
2022-08-12T19:40:37.314Z,26.70
2022-08-12T19:43:17.871Z,26.70
2022-08-12T19:45:50.394Z,26.70
2022-08-12T19:48:19.564Z,26.80
2022-08-12T19:50:50.220Z,26.80
2022-08-12T19:53:22.999Z,26.80
2022-08-12T19:55:53.013Z,26.80
2022-08-12T19:58:20.869Z,26.70
2022-08-12T20:00:52.875Z,26.80
2022-08-12T20:03:38.147Z,26.80
2022-08-12T20:06:11.229Z,26.80
2022-08-12T20:08:48.984Z,26.80
2022-08-12T20:12:11.083Z,26.80
2022-08-12T20:14:10.067Z,26.80
2022-08-12T20:19:52.810Z,26.80
2022-08-12T20:22:24.181Z,26.80
2022-08-12T20:24:58.385Z,26.80
2022-08-12T20:28:03.197Z,26.80
2022-08-12T20:30:20.159Z,26.80
2022-08-12T20:32:56.725Z,26.80
2022-08-12T20:35:25.037Z,26.80
2022-08-12T20:38:27.373Z,26.80
2022-08-12T20:40:55.898Z,26.80
2022-08-12T20:43:24.239Z,26.80
2022-08-12T20:45:58.064Z,26.80
2022-08-12T20:48:28.581Z,26.80
2022-08-12T20:50:57.959Z,26.80
2022-08-12T20:53:57.751Z,26.80
2022-08-12T20:56:22.241Z,26.80
2022-08-12T20:58:59.806Z,26.80
2022-08-12T21:01:28.942Z,26.80
2022-08-12T21:04:22.838Z,26.80
2022-08-12T21:06:56.991Z,26.80
2022-08-12T21:09:32.031Z,26.80
2022-08-12T21:12:05.878Z,26.80
2022-08-12T21:15:00.778Z,26.80
2022-08-12T21:18:09.048Z,26.80
2022-08-12T21:20:32.579Z,26.80
2022-08-12T21:22:59.245Z,26.90
2022-08-12T21:25:27.025Z,26.80
2022-08-12T21:28:11.616Z,26.90
2022-08-12T21:30:43.058Z,26.90
2022-08-12T21:33:30.863Z,26.80
2022-08-12T21:35:58.143Z,26.80
2022-08-12T21:38:34.291Z,26.90
2022-08-12T21:41:06.822Z,26.90
2022-08-12T21:43:45.139Z,26.80
2022-08-12T21:46:34.752Z,26.90
2022-08-12T21:49:04.778Z,26.80
2022-08-12T21:51:49.698Z,26.90
2022-08-12T21:54:24.599Z,26.90
2022-08-12T21:56:53.919Z,26.90
2022-08-12T21:59:21.731Z,26.90
2022-08-12T22:01:49.631Z,26.90
2022-08-12T22:04:36.373Z,26.90
2022-08-12T22:07:04.288Z,26.90
2022-08-12T22:09:43.302Z,26.90
2022-08-12T22:12:29.024Z,26.90
2022-08-12T22:14:55.822Z,26.90
2022-08-12T22:17:33.479Z,26.90
2022-08-12T22:20:21.908Z,26.90
2022-08-12T22:22:53.851Z,26.90
2022-08-12T22:25:24.163Z,26.90
2022-08-12T22:28:12.197Z,26.90
2022-08-12T22:30:57.581Z,26.90
2022-08-12T22:33:24.681Z,26.90
2022-08-12T22:35:59.685Z,26.90
2022-08-12T22:38:29.666Z,26.90
2022-08-12T22:41:02.157Z,26.90
2022-08-12T22:43:59.853Z,26.90
2022-08-12T22:46:52.530Z,26.90
2022-08-12T22:49:48.742Z,26.90
2022-08-12T22:52:18.414Z,26.90
2022-08-12T22:55:03.516Z,26.90
2022-08-12T22:57:54.270Z,26.90
2022-08-12T23:00:24.324Z,26.90
2022-08-12T23:02:56.760Z,26.90
2022-08-12T23:05:57.236Z,26.90
2022-08-12T23:08:17.607Z,26.90
2022-08-12T23:10:46.324Z,26.90
2022-08-12T23:13:43.054Z,26.90
2022-08-12T23:16:18.251Z,26.90
2022-08-12T23:19:09.498Z,26.90
2022-08-12T23:22:06.483Z,26.90
2022-08-12T23:24:36.876Z,26.90
2022-08-12T23:27:23.559Z,26.90
2022-08-12T23:30:17.865Z,26.90
2022-08-12T23:32:38.142Z,26.90
2022-08-12T23:35:06.927Z,26.90
2022-08-12T23:37:47.442Z,26.90
2022-08-12T23:40:21.203Z,26.90
2022-08-12T23:42:49.235Z,26.90
2022-08-12T23:45:20.232Z,26.90
2022-08-12T23:48:00.241Z,26.90
2022-08-12T23:50:34.630Z,26.90
2022-08-12T23:53:06.586Z,26.90
2022-08-12T23:55:45.372Z,26.90
2022-08-12T23:58:21.104Z,26.90
